createdAt,value
2023-02-14T00:02:42.380Z,23.93
2023-02-14T00:05:29.784Z,19.53
2023-02-14T00:08:17.273Z,20.60
2023-02-14T00:11:05.498Z,24.20
2023-02-14T00:14:11.562Z,25.63
2023-02-14T00:16:58.941Z,22.00
2023-02-14T00:19:46.350Z,23.23
2023-02-14T00:22:33.731Z,28.53
2023-02-14T00:25:21.124Z,24.93
2023-02-14T00:28:08.474Z,23.10
2023-02-14T00:30:58.070Z,19.77
2023-02-14T00:33:45.706Z,19.60
2023-02-14T00:36:33.472Z,21.57
2023-02-14T00:39:20.910Z,20.07
2023-02-14T00:42:08.266Z,22.10
2023-02-14T00:44:55.652Z,25.13
2023-02-14T00:47:42.991Z,23.33
2023-02-14T00:50:30.362Z,21.53
2023-02-14T00:53:17.776Z,22.23
2023-02-14T00:56:05.362Z,20.70
2023-02-14T00:58:52.700Z,17.73
2023-02-14T01:01:40.066Z,19.73
2023-02-14T01:04:27.538Z,30.03
2023-02-14T01:07:14.954Z,23.43
2023-02-14T01:10:02.379Z,22.50
2023-02-14T01:12:49.884Z,24.07
2023-02-14T01:15:41.544Z,21.70
2023-02-14T01:18:28.924Z,20.33
2023-02-14T01:21:21.110Z,24.33
2023-02-14T01:24:08.702Z,22.53
2023-02-14T01:26:56.062Z,19.20
2023-02-14T01:29:43.483Z,23.60
2023-02-14T01:32:31.907Z,22.67
2023-02-14T01:35:19.344Z,25.27
2023-02-14T01:38:06.715Z,23.33
2023-02-14T01:40:54.093Z,23.93
2023-02-14T01:43:57.023Z,24.17
2023-02-14T01:46:45.182Z,25.73
2023-02-14T01:49:40.187Z,27.00
2023-02-14T01:52:35.722Z,26.60
2023-02-14T01:55:25.432Z,23.50
2023-02-14T01:58:16.175Z,21.73
2023-02-14T02:01:04.468Z,23.13
2023-02-14T02:03:56.478Z,23.53
2023-02-14T02:06:49.453Z,22.07
2023-02-14T02:09:45.306Z,23.33
2023-02-14T02:12:35.417Z,26.13
2023-02-14T02:15:26.154Z,23.30
2023-02-14T02:18:21.562Z,23.47
2023-02-14T02:21:21.094Z,24.27
2023-02-14T02:24:20.450Z,24.87
2023-02-14T02:27:17.221Z,28.60
2023-02-14T02:30:13.888Z,25.37
2023-02-14T02:33:13.128Z,22.33
2023-02-14T02:36:18.321Z,25.13
2023-02-14T02:39:24.616Z,24.77
2023-02-14T02:42:30.939Z,25.33
2023-02-14T02:45:18.270Z,29.87
2023-02-14T02:48:18.477Z,25.70
2023-02-14T02:51:26.664Z,27.40
2023-02-14T02:54:18.599Z,24.13
2023-02-14T02:57:08.293Z,28.47
2023-02-14T02:59:57.059Z,24.30
2023-02-14T03:03:11.016Z,25.57
2023-02-14T03:05:58.585Z,29.23
2023-02-14T03:08:45.927Z,31.37
2023-02-14T03:11:33.338Z,24.63
2023-02-14T03:14:24.277Z,24.73
2023-02-14T03:17:23.453Z,28.60
2023-02-14T03:20:15.833Z,26.53
2023-02-14T03:23:09.043Z,28.87
2023-02-14T03:26:07.760Z,26.60
2023-02-14T03:29:10.633Z,25.47
2023-02-14T03:32:20.042Z,27.03
2023-02-14T03:35:07.441Z,28.93
2023-02-14T03:37:57.858Z,27.73
2023-02-14T03:40:45.201Z,25.87
2023-02-14T03:43:34.437Z,27.47
2023-02-14T03:46:25.096Z,30.00
2023-02-14T03:49:14.863Z,25.50
2023-02-14T03:52:03.289Z,26.87
2023-02-14T03:54:52.264Z,28.30
2023-02-14T03:57:47.931Z,30.60
2023-02-14T04:00:37.657Z,32.20
2023-02-14T04:03:26.129Z,30.50
2023-02-14T04:06:13.612Z,29.13
2023-02-14T04:09:01.014Z,33.93
2023-02-14T04:11:50.282Z,31.77
2023-02-14T04:14:37.829Z,31.63
2023-02-14T04:17:43.839Z,33.67
2023-02-14T04:20:31.335Z,32.63
2023-02-14T04:23:18.685Z,33.53
2023-02-14T04:26:06.101Z,34.27
2023-02-14T04:28:53.519Z,34.20
2023-02-14T04:31:40.918Z,33.37
2023-02-14T04:34:28.325Z,31.33
2023-02-14T04:37:16.668Z,34.03
2023-02-14T04:40:04.105Z,35.77
2023-02-14T04:42:51.501Z,30.93
2023-02-14T04:45:38.891Z,28.33
2023-02-14T04:48:26.270Z,30.83
2023-02-14T04:51:13.655Z,35.37
2023-02-14T04:54:01.042Z,30.67
2023-02-14T04:56:48.452Z,32.00
2023-02-14T04:59:35.862Z,33.97
2023-02-14T05:02:23.515Z,30.73
2023-02-14T05:05:11.132Z,33.27
2023-02-14T05:07:58.529Z,30.97
2023-02-14T05:10:45.906Z,32.80
2023-02-14T05:13:33.294Z,32.97
2023-02-14T05:16:20.677Z,32.47
2023-02-14T05:19:08.131Z,30.23
2023-02-14T05:21:55.495Z,37.07
2023-02-14T05:24:42.859Z,34.73
2023-02-14T05:27:30.358Z,35.37
2023-02-14T05:30:18.235Z,33.97
2023-02-14T05:33:05.744Z,37.00
2023-02-14T05:35:53.153Z,36.23
2023-02-14T05:38:40.497Z,34.03
2023-02-14T05:41:27.948Z,35.33
2023-02-14T05:44:15.308Z,35.53
2023-02-14T05:47:02.871Z,40.42
2023-02-14T05:49:50.241Z,34.27
2023-02-14T05:52:38.090Z,34.37
2023-02-14T05:55:26.155Z,33.77
2023-02-14T05:58:13.647Z,38.28
2023-02-14T06:01:01.767Z,34.20
2023-02-14T06:03:49.370Z,39.45
2023-02-14T06:06:36.931Z,30.77
2023-02-14T06:09:24.714Z,32.60
2023-02-14T06:12:12.074Z,34.30
2023-02-14T06:14:59.417Z,35.10
2023-02-14T06:17:51.520Z,39.90
2023-02-14T06:20:38.907Z,34.60
2023-02-14T06:23:26.249Z,32.97
2023-02-14T06:26:13.587Z,34.43
2023-02-14T06:29:00.958Z,36.00
2023-02-14T06:31:48.444Z,34.17
2023-02-14T06:34:35.927Z,32.33
2023-02-14T06:37:23.344Z,37.10
2023-02-14T06:40:10.958Z,36.37
2023-02-14T06:42:58.389Z,34.40
2023-02-14T06:45:47.179Z,33.73
2023-02-14T06:48:34.575Z,34.40
2023-02-14T06:51:21.925Z,36.27
2023-02-14T06:54:09.309Z,34.40
2023-02-14T06:56:56.658Z,35.07
2023-02-14T06:59:44.020Z,35.13
2023-02-14T07:02:31.488Z,33.97
2023-02-14T07:05:19.009Z,39.93
2023-02-14T07:08:08.067Z,37.57
2023-02-14T07:10:59.129Z,40.43
2023-02-14T07:13:49.175Z,40.03
2023-02-14T07:16:36.858Z,37.80
2023-02-14T07:19:24.208Z,37.17
2023-02-14T07:22:11.557Z,38.97
2023-02-14T07:24:58.977Z,41.20
2023-02-14T07:27:46.379Z,42.87
2023-02-14T07:30:33.832Z,40.73
2023-02-14T07:33:21.240Z,41.97
2023-02-14T07:36:09.186Z,44.53
2023-02-14T07:38:57.368Z,40.67
2023-02-14T07:41:44.684Z,40.83
2023-02-14T07:44:32.041Z,40.33
2023-02-14T07:47:19.396Z,37.03
2023-02-14T07:50:08.015Z,42.30
2023-02-14T07:52:55.858Z,39.13
2023-02-14T07:55:43.261Z,45.83
2023-02-14T07:58:30.627Z,41.33
2023-02-14T08:01:18.243Z,46.73
2023-02-14T08:04:05.724Z,41.53
2023-02-14T08:06:54.025Z,41.13
2023-02-14T08:09:41.370Z,40.00
2023-02-14T08:12:47.576Z,43.20
2023-02-14T08:15:54.392Z,40.33
2023-02-14T08:18:42.312Z,42.13
2023-02-14T08:21:29.766Z,41.97
2023-02-14T08:24:17.140Z,44.03
2023-02-14T08:27:04.571Z,42.27
2023-02-14T08:29:52.059Z,46.70
2023-02-14T08:32:39.695Z,38.33
2023-02-14T08:35:27.351Z,37.03
2023-02-14T08:38:15.095Z,40.37
2023-02-14T08:41:05.871Z,38.00
2023-02-14T08:43:55.065Z,37.83
2023-02-14T08:46:42.504Z,40.97
2023-02-14T08:49:29.872Z,39.07
2023-02-14T08:52:17.363Z,38.93
2023-02-14T08:55:05.282Z,37.73
2023-02-14T08:57:52.815Z,40.60
2023-02-14T09:00:40.358Z,42.63
2023-02-14T09:03:27.766Z,43.27
2023-02-14T09:06:17.432Z,38.27
2023-02-14T09:09:05.078Z,38.30
2023-02-14T09:11:52.450Z,34.13
2023-02-14T09:14:41.667Z,32.77
2023-02-14T09:17:30.138Z,33.67
2023-02-14T09:20:17.731Z,34.83
2023-02-14T09:23:05.209Z,32.43
2023-02-14T09:25:52.656Z,32.47
2023-02-14T09:28:40.602Z,32.43
2023-02-14T09:31:28.028Z,32.77
2023-02-14T09:34:15.434Z,32.43
2023-02-14T09:37:21.798Z,33.13
2023-02-14T09:40:09.707Z,29.13
2023-02-14T09:42:57.371Z,34.63
2023-02-14T09:45:49.882Z,37.70
2023-02-14T09:48:38.900Z,31.40
2023-02-14T09:51:28.740Z,33.90
2023-02-14T09:54:21.865Z,29.87
2023-02-14T09:57:16.029Z,33.37
2023-02-14T10:00:11.930Z,32.20
2023-02-14T10:03:15.766Z,28.37
2023-02-14T10:06:03.138Z,34.60
2023-02-14T10:09:03.428Z,31.87
2023-02-14T10:11:50.978Z,31.20
2023-02-14T10:14:40.863Z,30.80
2023-02-14T10:17:41.378Z,32.23
2023-02-14T10:20:39.785Z,28.30
2023-02-14T10:23:32.691Z,28.47
2023-02-14T10:26:27.642Z,28.53
2023-02-14T10:29:16.601Z,26.20
2023-02-14T10:32:05.115Z,26.33
2023-02-14T10:34:52.556Z,26.70
2023-02-14T10:37:58.582Z,24.17
2023-02-14T10:41:06.003Z,26.27
2023-02-14T10:44:14.682Z,26.37
2023-02-14T10:47:02.181Z,24.13
2023-02-14T10:50:02.628Z,25.37
2023-02-14T10:52:58.936Z,23.35
2023-02-14T10:56:05.298Z,25.98
2023-02-14T10:58:53.227Z,23.92
2023-02-14T11:01:40.718Z,23.27
2023-02-14T11:04:28.817Z,23.60
2023-02-14T11:07:21.477Z,22.97
2023-02-14T11:10:14.716Z,23.90
2023-02-14T11:13:02.124Z,21.70
2023-02-14T11:15:51.706Z,24.10
2023-02-14T11:18:42.037Z,23.27
2023-02-14T11:21:37.195Z,25.07
2023-02-14T11:24:38.823Z,22.80
2023-02-14T11:27:26.318Z,21.23
2023-02-14T11:30:19.278Z,23.10
2023-02-14T11:33:07.718Z,25.93
2023-02-14T11:35:55.166Z,23.83
2023-02-14T11:38:43.909Z,24.63
2023-02-14T11:41:46.720Z,24.50
2023-02-14T11:44:37.252Z,26.07
2023-02-14T11:47:32.255Z,25.27
2023-02-14T11:50:25.976Z,25.83
2023-02-14T11:53:14.120Z,21.10
2023-02-14T11:56:01.868Z,23.63
2023-02-14T11:58:57.543Z,24.20
2023-02-14T12:01:46.736Z,24.37
2023-02-14T12:04:45.787Z,23.20
2023-02-14T12:07:34.926Z,25.80
2023-02-14T12:10:24.396Z,25.10
2023-02-14T12:13:11.706Z,24.70
2023-02-14T12:15:59.736Z,29.37
2023-02-14T12:18:53.566Z,29.70
2023-02-14T12:21:47.699Z,27.97
2023-02-14T12:24:40.137Z,25.97
2023-02-14T12:27:35.368Z,29.00
2023-02-14T12:30:23.978Z,26.30
2023-02-14T12:33:19.687Z,28.37
2023-02-14T12:36:15.044Z,29.50
2023-02-14T12:39:08.538Z,26.00
2023-02-14T12:42:02.749Z,27.40
2023-02-14T12:44:56.090Z,27.77
2023-02-14T12:47:56.101Z,26.37
2023-02-14T12:51:02.909Z,28.13
2023-02-14T12:54:01.068Z,26.20
2023-02-14T12:56:59.904Z,27.03
2023-02-14T13:00:06.185Z,29.10
2023-02-14T13:03:12.280Z,28.83
2023-02-14T13:06:08.253Z,30.50
2023-02-14T13:09:01.905Z,33.90
2023-02-14T13:11:53.442Z,28.80
2023-02-14T13:14:56.107Z,28.30
2023-02-14T13:17:47.881Z,31.30
2023-02-14T13:20:54.785Z,29.30
2023-02-14T13:23:44.423Z,31.43
2023-02-14T13:26:40.213Z,30.23
2023-02-14T13:30:01.012Z,30.13
2023-02-14T13:32:51.177Z,28.20
2023-02-14T13:35:38.915Z,30.80
2023-02-14T13:38:27.239Z,29.30
2023-02-14T13:41:15.780Z,29.30
2023-02-14T13:44:05.275Z,32.33
2023-02-14T13:46:52.934Z,30.70
2023-02-14T13:49:46.504Z,28.17
2023-02-14T13:52:44.923Z,29.53
2023-02-14T13:55:35.506Z,29.77
2023-02-14T13:58:24.061Z,31.90
2023-02-14T14:01:29.509Z,31.03
2023-02-14T14:04:30.068Z,45.10
2023-02-14T14:07:19.347Z,31.60
2023-02-14T14:10:07.230Z,30.00
2023-02-14T14:12:54.648Z,30.37
2023-02-14T14:16:02.225Z,29.87
2023-02-14T14:19:04.871Z,28.93
2023-02-14T14:22:01.492Z,27.93
2023-02-14T14:24:53.880Z,31.10
2023-02-14T14:27:42.916Z,32.23
2023-02-14T14:30:33.420Z,29.03
2023-02-14T14:33:29.321Z,30.93
2023-02-14T14:36:23.113Z,28.33
2023-02-14T14:39:10.779Z,31.50
2023-02-14T14:42:06.971Z,30.87
2023-02-14T14:44:54.403Z,33.27
2023-02-14T14:47:43.646Z,33.47
2023-02-14T14:50:32.965Z,34.17
2023-02-14T14:53:22.543Z,32.63
2023-02-14T14:56:23.932Z,30.00
2023-02-14T14:59:18.744Z,26.90
2023-02-14T15:02:21.249Z,28.13
2023-02-14T15:05:23.773Z,29.50
2023-02-14T15:08:20.111Z,28.53
2023-02-14T15:11:09.993Z,32.30
2023-02-14T15:13:58.265Z,27.90
2023-02-14T15:16:47.614Z,27.87
2023-02-14T15:19:38.526Z,30.80
2023-02-14T15:22:30.151Z,26.50
2023-02-14T15:25:19.712Z,32.47
2023-02-14T15:28:07.236Z,27.77
2023-02-14T15:30:59.699Z,25.93
2023-02-14T15:33:47.448Z,26.27
2023-02-14T15:36:35.311Z,27.57
2023-02-14T15:39:24.238Z,28.17
2023-02-14T15:42:25.048Z,28.53
2023-02-14T15:45:24.057Z,26.07
2023-02-14T15:48:14.167Z,29.03
2023-02-14T15:51:04.958Z,28.37
2023-02-14T15:53:54.198Z,28.00
2023-02-14T15:56:43.629Z,25.83
2023-02-14T15:59:33.400Z,25.23
2023-02-14T16:02:50.754Z,25.50
2023-02-14T16:05:38.653Z,24.20
2023-02-14T16:08:32.795Z,24.73
2023-02-14T16:11:31.704Z,28.50
2023-02-14T16:14:31.893Z,27.75
2023-02-14T16:17:31.298Z,26.57
2023-02-14T16:20:24.871Z,28.40
2023-02-14T16:23:18.228Z,33.47
2023-02-14T16:26:09.138Z,28.13
2023-02-14T16:28:56.514Z,26.80
2023-02-14T16:32:06.265Z,37.57
2023-02-14T16:34:52.678Z,34.20
2023-02-14T16:37:40.056Z,30.37
2023-02-14T16:40:28.038Z,26.93
2023-02-14T16:43:16.259Z,31.47
2023-02-14T16:46:03.706Z,31.67
2023-02-14T16:48:52.234Z,29.03
2023-02-14T16:51:42.617Z,28.63
2023-02-14T16:54:29.968Z,29.97
2023-02-14T16:57:19.701Z,30.30
2023-02-14T17:00:07.700Z,45.77
2023-02-14T17:03:06.159Z,44.57
2023-02-14T17:05:53.946Z,48.83
2023-02-14T17:08:41.832Z,60.00
2023-02-14T17:11:32.078Z,52.10
2023-02-14T17:14:23.028Z,43.07
2023-02-14T17:17:10.772Z,33.57
2023-02-14T17:19:58.425Z,38.73
2023-02-14T17:22:45.803Z,30.67
2023-02-14T17:25:33.261Z,30.53
2023-02-14T17:28:20.684Z,34.10
2023-02-14T17:31:08.296Z,40.63
2023-02-14T17:33:55.939Z,33.63
2023-02-14T17:36:43.337Z,29.20
2023-02-14T17:39:30.937Z,37.20
2023-02-14T17:42:18.287Z,38.23
2023-02-14T17:45:06.608Z,34.40
2023-02-14T17:47:53.969Z,34.97
2023-02-14T17:50:41.672Z,30.00
2023-02-14T17:53:29.038Z,30.70
2023-02-14T17:56:20.865Z,32.03
2023-02-14T17:59:08.201Z,34.73
2023-02-14T18:01:55.651Z,32.50
2023-02-14T18:04:43.041Z,29.07
2023-02-14T18:07:30.479Z,29.13
2023-02-14T18:10:18.049Z,28.93
2023-02-14T18:13:05.478Z,27.03
2023-02-14T18:15:53.565Z,29.00
2023-02-14T18:18:41.327Z,24.67
2023-02-14T18:21:29.434Z,28.80
2023-02-14T18:24:16.924Z,26.43
2023-02-14T18:27:05.967Z,27.30
2023-02-14T18:29:54.524Z,30.83
2023-02-14T18:32:41.934Z,33.37
2023-02-14T18:35:29.282Z,30.57
2023-02-14T18:38:16.649Z,29.47
2023-02-14T18:41:04.629Z,29.60
2023-02-14T18:43:52.373Z,33.63
2023-02-14T18:46:40.162Z,29.90
2023-02-14T18:49:27.626Z,34.80
2023-02-14T18:52:15.057Z,35.43
2023-02-14T18:55:02.425Z,37.33
2023-02-14T18:57:49.766Z,44.87
2023-02-14T19:00:37.259Z,39.97
2023-02-14T19:03:24.648Z,34.20
2023-02-14T19:06:12.946Z,33.73
2023-02-14T19:09:01.308Z,37.33
2023-02-14T19:11:48.696Z,36.70
2023-02-14T19:14:36.601Z,32.67
2023-02-14T19:17:24.178Z,32.40
2023-02-14T19:20:12.507Z,33.67
2023-02-14T19:22:59.841Z,32.83
2023-02-14T19:25:47.261Z,31.63
2023-02-14T19:28:34.629Z,33.10
2023-02-14T19:31:22.100Z,32.67
2023-02-14T19:34:15.569Z,35.63
2023-02-14T19:37:02.993Z,37.97
2023-02-14T19:39:50.346Z,35.80
2023-02-14T19:42:37.806Z,33.60
2023-02-14T19:45:27.269Z,38.67
2023-02-14T19:48:14.618Z,39.00
2023-02-14T19:51:02.375Z,49.23
2023-02-14T19:53:51.297Z,43.70
2023-02-14T19:56:42.934Z,46.20
2023-02-14T19:59:32.796Z,44.90
2023-02-14T20:02:20.945Z,41.83
2023-02-14T20:05:08.432Z,39.43
2023-02-14T20:07:55.941Z,39.10
2023-02-14T20:10:43.352Z,38.17
2023-02-14T20:13:30.690Z,37.63
2023-02-14T20:16:18.081Z,39.27
2023-02-14T20:19:08.082Z,36.53
2023-02-14T20:21:55.875Z,35.03
2023-02-14T20:24:43.217Z,37.10
2023-02-14T20:27:30.546Z,35.13
2023-02-14T20:30:20.673Z,37.70
2023-02-14T20:33:08.085Z,33.83
2023-02-14T20:35:55.459Z,35.73
2023-02-14T20:38:42.873Z,34.63
2023-02-14T20:41:30.726Z,36.57
2023-02-14T20:44:22.749Z,33.10
2023-02-14T20:47:10.873Z,35.00
2023-02-14T20:49:58.203Z,35.67
2023-02-14T20:52:45.995Z,37.93
2023-02-14T20:55:33.393Z,36.30
2023-02-14T20:58:20.765Z,34.90
2023-02-14T21:01:09.223Z,38.80
2023-02-14T21:03:56.741Z,34.13
2023-02-14T21:06:44.165Z,37.00
2023-02-14T21:09:32.800Z,38.10
2023-02-14T21:12:20.574Z,36.40
2023-02-14T21:15:08.184Z,35.30
2023-02-14T21:17:55.529Z,33.87
2023-02-14T21:20:42.873Z,36.30
2023-02-14T21:23:30.258Z,36.87
2023-02-14T21:26:17.791Z,34.93
2023-02-14T21:29:05.919Z,33.97
2023-02-14T21:31:53.380Z,38.20
2023-02-14T21:34:40.829Z,38.07
2023-02-14T21:37:28.149Z,36.07
2023-02-14T21:40:15.545Z,35.17
2023-02-14T21:43:03.227Z,34.77
2023-02-14T21:45:53.556Z,33.70
2023-02-14T21:48:59.899Z,37.20
2023-02-14T21:51:47.590Z,35.03
2023-02-14T21:54:34.946Z,32.33
2023-02-14T21:57:22.314Z,35.30
2023-02-14T22:00:09.938Z,33.97
2023-02-14T22:02:57.372Z,32.77
2023-02-14T22:05:44.780Z,37.17
2023-02-14T22:08:32.968Z,34.67
2023-02-14T22:11:20.668Z,35.03
2023-02-14T22:14:08.298Z,34.37
2023-02-14T22:16:55.978Z,32.87
2023-02-14T22:19:43.309Z,30.23
2023-02-14T22:22:32.889Z,30.90
2023-02-14T22:25:20.247Z,29.20
2023-02-14T22:28:07.610Z,33.17
2023-02-14T22:30:55.066Z,31.13
2023-02-14T22:33:42.489Z,30.73
2023-02-14T22:36:29.885Z,29.27
2023-02-14T22:39:17.636Z,30.83
2023-02-14T22:42:06.786Z,31.93
2023-02-14T22:44:54.133Z,31.73
2023-02-14T22:47:41.527Z,31.13
2023-02-14T22:50:28.971Z,34.17
2023-02-14T22:53:16.304Z,32.40
2023-02-14T22:56:11.113Z,29.40
2023-02-14T22:58:59.728Z,30.17
2023-02-14T23:01:47.569Z,32.13
2023-02-14T23:04:34.979Z,28.53
2023-02-14T23:07:22.408Z,27.27
2023-02-14T23:10:10.096Z,27.10
2023-02-14T23:13:16.058Z,28.17
2023-02-14T23:16:22.405Z,30.90
2023-02-14T23:19:32.554Z,30.10
2023-02-14T23:22:21.149Z,30.90
2023-02-14T23:25:09.958Z,29.47
2023-02-14T23:27:57.330Z,30.83
2023-02-14T23:30:44.681Z,30.80
2023-02-14T23:33:32.091Z,29.10
2023-02-14T23:36:19.471Z,25.27
2023-02-14T23:39:07.288Z,29.33
2023-02-14T23:41:55.169Z,29.03
2023-02-14T23:44:45.558Z,28.97
2023-02-14T23:47:34.426Z,29.70
2023-02-14T23:50:21.993Z,26.40
2023-02-14T23:53:09.368Z,25.07
2023-02-14T23:56:00.974Z,25.33
2023-02-14T23:58:48.519Z,27.50
